Аэропорт
Чикаго О'Хара (KORD)

 KORD / ORD

United States
US-IL
Чикаго
 41.97860, -87.90480  / 672 ft

 KORD 201651Z 34009G15KT 10SM FEW035 M07/M19 A3071 RMK AO2 SLP410 T10671194


2020 © VATRUS division (Privacy Policy)